createdAt,value
2019-05-07T19:36:54.533Z,7.30
2019-05-07T19:42:02.612Z,7.10
2019-05-07T19:47:08.677Z,4.60
2019-05-07T19:52:14.654Z,4.83
2019-05-07T19:57:24.995Z,4.77
2019-05-07T20:02:37.063Z,3.37
2019-05-07T20:07:43.117Z,4.27
2019-05-07T20:12:48.890Z,3.77
2019-05-07T20:17:54.580Z,3.33
2019-05-07T20:23:02.425Z,3.13
2019-05-07T20:28:07.821Z,3.97
2019-05-07T20:33:13.495Z,4.37
2019-05-07T20:38:19.110Z,4.10
2019-05-07T20:43:25.252Z,3.47
2019-05-07T20:48:32.541Z,3.30
2019-05-07T20:53:54.948Z,4.70
2019-05-07T20:59:02.952Z,3.13
2019-05-07T21:04:10.278Z,3.00
2019-05-07T21:09:16.229Z,2.67
2019-05-07T21:14:22.816Z,3.03
2019-05-07T21:19:28.707Z,1.90
2019-05-07T21:24:34.366Z,3.50
2019-05-07T21:29:42.102Z,2.63
2019-05-07T21:34:47.434Z,4.43
2019-05-07T21:39:53.485Z,4.57
2019-05-07T21:45:01.924Z,3.00
2019-05-07T21:50:06.832Z,2.83
2019-05-07T21:55:25.445Z,3.07
2019-05-07T22:00:59.320Z,2.37
2019-05-07T22:06:05.549Z,3.37
2019-05-07T22:11:12.465Z,3.07
2019-05-07T22:16:18.281Z,3.50
2019-05-07T22:21:24.339Z,2.97
2019-05-07T22:26:32.249Z,3.30
2019-05-07T22:31:56.512Z,2.57
2019-05-07T22:37:03.259Z,3.30
2019-05-07T22:42:19.513Z,3.27
2019-05-07T22:47:25.028Z,3.33
2019-05-07T22:52:32.656Z,3.20
2019-05-07T22:58:01.681Z,2.77
2019-05-07T23:03:07.417Z,2.77
2019-05-07T23:08:13.147Z,2.73
2019-05-07T23:13:18.953Z,3.30
2019-05-07T23:18:24.822Z,3.50
2019-05-07T23:23:32.526Z,2.87
2019-05-07T23:28:38.074Z,2.73
2019-05-07T23:33:43.703Z,2.50
2019-05-07T23:38:49.442Z,3.50
2019-05-07T23:44:15.938Z,2.30
2019-05-07T23:49:23.234Z,2.20
2019-05-07T23:54:29.139Z,3.43
2019-05-07T23:59:34.863Z,1.80
